Time;durP1;ratioP1;P1;durP2;ratioP2;P2;SDS_P1;SDS_P2;PMS_P1;PMS_P2;Temp;Humidity;BMP_temperature;BMP_pressure;BME280_temperature;BME280_humidity;BME280_pressure;Samples;Min_cycle;Max_cycle;Signal;HPM_P1;HPM_P2
2021/03/19 00:01:07;;;;;;;8.07;6.27;;;4.90;97.10;;;;;;4966988;28;20472;-84
2021/03/19 00:03:34;;;;;;;11.30;8.30;;;4.80;97.50;;;;;;4965120;28;20482;-84
2021/03/19 00:06:00;;;;;;;9.40;8.50;;;4.80;98.00;;;;;;4983715;28;20447;-86
2021/03/19 00:08:27;;;;;;;9.30;7.53;;;4.60;98.70;;;;;;4969045;28;20480;-85
2021/03/19 00:10:53;;;;;;;9.53;8.27;;;4.60;99.30;;;;;;4976378;28;20445;-84
2021/03/19 00:13:20;;;;;;;9.50;8.10;;;4.50;99.90;;;;;;4968048;28;20452;-84
2021/03/19 00:15:46;;;;;;;10.30;8.80;;;4.50;99.90;;;;;;4967387;28;20442;-84
2021/03/19 00:18:13;;;;;;;9.73;8.10;;;4.40;99.90;;;;;;4978347;28;20448;-84
2021/03/19 00:20:41;;;;;;;10.17;9.07;;;4.40;99.90;;;;;;4981480;28;20493;-85
2021/03/19 00:23:08;;;;;;;12.20;8.07;;;4.30;99.90;;;;;;4969027;28;20467;-84
2021/03/19 00:25:36;;;;;;;9.53;8.43;;;4.20;99.90;;;;;;4964105;28;20449;-86
2021/03/19 00:28:03;;;;;;;8.93;8.03;;;4.20;99.90;;;;;;4966386;28;20483;-85
2021/03/19 00:30:30;;;;;;;15.43;9.50;;;4.20;99.90;;;;;;4967341;28;20440;-85
2021/03/19 00:32:56;;;;;;;9.27;8.20;;;4.20;99.90;;;;;;4964747;28;20463;-85
2021/03/19 00:35:24;;;;;;;10.63;9.52;;;4.10;99.90;;;;;;4964592;28;20458;-84
2021/03/19 00:37:50;;;;;;;9.47;8.47;;;4.20;99.90;;;;;;4955030;28;20207;-84
2021/03/19 00:40:17;;;;;;;11.10;10.00;;;4.10;99.90;;;;;;4968797;28;20461;-85
2021/03/19 00:42:44;;;;;;;10.03;8.90;;;4.20;99.90;;;;;;4983612;28;20466;-84
2021/03/19 00:45:15;;;;;;;9.82;8.82;;;4.20;99.90;;;;;;4983298;28;20474;-84
2021/03/19 00:47:41;;;;;;;11.80;10.10;;;4.10;99.90;;;;;;4985824;28;20224;-85
2021/03/19 00:50:11;;;;;;;9.80;8.80;;;4.00;99.90;;;;;;4983495;28;20428;-85
2021/03/19 00:52:38;;;;;;;11.90;10.47;;;3.90;99.90;;;;;;4980541;28;20482;-85
2021/03/19 00:55:06;;;;;;;11.57;9.70;;;3.90;99.90;;;;;;4980830;28;20768;-85
2021/03/19 00:57:33;;;;;;;13.90;12.23;;;3.90;99.90;;;;;;4977380;28;20439;-84
2021/03/19 00:59:59;;;;;;;12.60;10.67;;;3.90;99.90;;;;;;4967692;28;20438;-84
2021/03/19 01:02:25;;;;;;;14.82;11.13;;;3.80;99.90;;;;;;4974291;28;20482;-84
2021/03/19 01:04:52;;;;;;;13.67;10.67;;;3.80;99.90;;;;;;4981809;28;20195;-85
2021/03/19 01:07:18;;;;;;;11.00;9.90;;;3.80;99.90;;;;;;4970823;28;20538;-84
2021/03/19 01:09:45;;;;;;;12.97;11.47;;;3.80;99.90;;;;;;4988489;28;20447;-84
2021/03/19 01:12:11;;;;;;;12.47;11.17;;;3.80;99.90;;;;;;4983842;28;20469;-84
2021/03/19 01:14:38;;;;;;;11.97;9.87;;;3.70;99.90;;;;;;4987773;28;20440;-85
2021/03/19 01:17:04;;;;;;;12.13;10.80;;;3.70;99.90;;;;;;4976894;28;20439;-84
2021/03/19 01:19:30;;;;;;;14.83;11.10;;;3.60;99.90;;;;;;4983776;28;20430;-85
2021/03/19 01:21:56;;;;;;;15.10;10.90;;;3.60;99.90;;;;;;4984986;28;20463;-84
2021/03/19 01:24:22;;;;;;;12.35;11.02;;;3.50;99.90;;;;;;4977053;28;20447;-85
2021/03/19 01:26:50;;;;;;;15.87;11.43;;;3.40;99.90;;;;;;4970631;28;20222;-85
2021/03/19 01:29:16;;;;;;;13.27;11.60;;;3.40;99.90;;;;;;4969417;28;20503;-85
2021/03/19 01:31:42;;;;;;;16.67;12.50;;;3.30;99.90;;;;;;4968234;28;20462;-84
2021/03/19 01:34:09;;;;;;;13.93;12.17;;;3.30;99.90;;;;;;4968822;28;20450;-84
2021/03/19 01:36:35;;;;;;;13.77;12.37;;;3.30;99.90;;;;;;4983825;28;20427;-85
2021/03/19 01:39:01;;;;;;;15.27;12.63;;;3.30;99.90;;;;;;4992979;28;20432;-85
2021/03/19 01:41:27;;;;;;;16.60;12.98;;;3.30;99.90;;;;;;4973183;28;21025;-85
2021/03/19 01:43:55;;;;;;;14.90;12.90;;;3.30;99.90;;;;;;4989137;28;20211;-85
2021/03/19 01:46:59;;;;;;;16.35;13.90;;;3.20;99.90;;;;;;4974907;28;20201;-85
2021/03/19 01:50:02;;;;;;;15.13;13.50;;;3.20;99.90;;;;;;4965918;28;20195;-84
2021/03/19 01:53:05;;;;;;;15.73;13.20;;;3.20;99.90;;;;;;4965930;28;20605;-85
2021/03/19 01:56:09;;;;;;;17.58;15.13;;;3.20;99.90;;;;;;4968268;28;20218;-85
2021/03/19 01:59:12;;;;;;;15.85;13.82;;;3.20;99.90;;;;;;4967708;28;20243;-85
2021/03/19 02:02:16;;;;;;;17.50;15.65;;;3.20;99.90;;;;;;4968841;28;20220;-85
2021/03/19 02:05:19;;;;;;;18.65;14.55;;;3.10;99.90;;;;;;4967368;28;20281;-84
2021/03/19 02:08:23;;;;;;;18.92;14.13;;;3.10;99.90;;;;;;4964905;28;20217;-86
2021/03/19 02:11:27;;;;;;;18.88;15.70;;;3.10;99.90;;;;;;4966416;28;20246;-85
2021/03/19 02:14:30;;;;;;;21.00;14.83;;;3.10;99.90;;;;;;4966680;28;20258;-86
2021/03/19 02:17:34;;;;;;;20.58;16.13;;;3.00;99.90;;;;;;4967379;28;20432;-85
2021/03/19 02:20:37;;;;;;;19.10;15.40;;;3.00;99.90;;;;;;4989088;28;20182;-86
2021/03/19 02:27:16;;;;;;;20.92;17.10;;;2.80;99.90;;;;;;4903136;29;21006;-86
2021/03/19 02:30:20;;;;;;;24.83;17.10;;;2.90;99.90;;;;;;4945997;28;20214;-84
2021/03/19 02:32:47;;;;;;;28.00;20.10;;;3.00;99.90;;;;;;4977737;28;20226;-84
2021/03/19 02:35:17;;;;;;;18.92;16.63;;;3.00;99.90;;;;;;4976982;28;20207;-85
2021/03/19 02:37:43;;;;;;;22.47;17.93;;;3.10;99.90;;;;;;4962886;28;20205;-85
2021/03/19 02:40:15;;;;;;;19.45;17.45;;;3.10;99.90;;;;;;4938330;29;20835;-84
2021/03/19 02:42:42;;;;;;;20.05;17.50;;;3.20;99.90;;;;;;4946782;29;20228;-84
2021/03/19 02:45:10;;;;;;;21.47;16.47;;;3.20;99.90;;;;;;4957992;28;20211;-84
2021/03/19 02:47:36;;;;;;;18.13;16.23;;;3.30;99.90;;;;;;4990598;23;20490;-88
2021/03/19 02:50:04;;;;;;;19.33;17.25;;;3.30;99.90;;;;;;4979059;28;20206;-90
2021/03/19 02:52:35;;;;;;;19.80;17.70;;;3.40;99.90;;;;;;4988820;28;20190;-88
2021/03/19 02:55:01;;;;;;;19.60;16.80;;;3.40;99.90;;;;;;4980805;28;20215;-90
2021/03/19 02:57:27;;;;;;;19.70;17.70;;;3.40;99.90;;;;;;4974047;28;20467;-89
2021/03/19 02:59:54;;;;;;;21.30;18.83;;;3.40;99.90;;;;;;4960059;29;20819;-89
2021/03/19 03:02:20;;;;;;;23.23;17.27;;;3.40;99.90;;;;;;4965740;29;21031;-88
2021/03/19 03:04:47;;;;;;;20.17;17.47;;;3.40;99.90;;;;;;4971556;28;20497;-89
2021/03/19 03:07:21;;;;;;;21.60;17.75;;;3.30;99.90;;;;;;4962060;29;20497;-89
2021/03/19 03:09:47;;;;;;;19.50;17.42;;;3.30;99.90;;;;;;4963331;29;20324;-89
2021/03/19 03:12:14;;;;;;;20.48;17.45;;;3.20;99.90;;;;;;4973170;28;20229;-88
2021/03/19 03:14:40;;;;;;;19.48;17.40;;;3.20;99.90;;;;;;4979673;28;20214;-89
2021/03/19 03:17:06;;;;;;;22.02;17.58;;;3.30;99.90;;;;;;4991608;28;20203;-88
2021/03/19 03:19:33;;;;;;;22.47;18.50;;;3.20;99.90;;;;;;4999965;28;20188;-89
2021/03/19 03:21:59;;;;;;;22.75;17.33;;;3.20;99.90;;;;;;4989395;28;21009;-89
2021/03/19 03:24:28;;;;;;;20.30;16.53;;;3.20;99.90;;;;;;4981289;28;20222;-89
2021/03/19 03:26:54;;;;;;;20.15;16.45;;;3.30;99.90;;;;;;4967715;28;20485;-88
2021/03/19 03:29:21;;;;;;;18.40;15.30;;;3.20;99.90;;;;;;4960829;29;20211;-89
2021/03/19 03:31:49;;;;;;;19.93;16.57;;;3.30;99.90;;;;;;4960102;29;20862;-90
2021/03/19 03:34:15;;;;;;;17.73;15.93;;;3.30;99.90;;;;;;4966910;28;20443;-88
2021/03/19 03:36:42;;;;;;;18.83;15.83;;;3.30;99.90;;;;;;4970693;28;20486;-88
2021/03/19 03:39:12;;;;;;;19.30;15.20;;;3.30;99.90;;;;;;4972723;28;20478;-89
2021/03/19 03:41:40;;;;;;;19.30;17.20;;;3.30;99.90;;;;;;4989860;28;20418;-92
2021/03/19 03:44:08;;;;;;;21.05;17.15;;;3.30;99.90;;;;;;4985793;28;20459;-90
2021/03/19 03:46:34;;;;;;;17.77;15.10;;;3.30;99.90;;;;;;4992382;28;20703;-91
2021/03/19 03:49:01;;;;;;;20.50;16.20;;;3.40;99.90;;;;;;4991715;28;20230;-90
2021/03/19 03:51:29;;;;;;;18.90;16.53;;;3.40;99.90;;;;;;4991392;28;20200;-91
2021/03/19 03:53:56;;;;;;;19.10;17.20;;;3.40;99.90;;;;;;4987206;28;20460;-89
2021/03/19 03:56:27;;;;;;;22.00;16.85;;;3.50;99.90;;;;;;4994819;28;20462;-89
2021/03/19 03:58:55;;;;;;;20.63;16.73;;;3.50;99.90;;;;;;4996942;28;20250;-90
2021/03/19 04:01:21;;;;;;;24.23;18.20;;;3.60;99.90;;;;;;4983915;28;20297;-90
2021/03/19 04:03:48;;;;;;;20.10;17.88;;;3.50;99.90;;;;;;4966959;28;20298;-90
2021/03/19 04:06:14;;;;;;;20.77;18.50;;;3.50;99.90;;;;;;4968943;28;20212;-91
2021/03/19 04:08:41;;;;;;;21.00;16.52;;;3.50;99.90;;;;;;4965812;28;20483;-90
2021/03/19 04:11:09;;;;;;;22.40;19.63;;;3.50;99.90;;;;;;4966496;29;20215;-91
2021/03/19 04:13:36;;;;;;;19.67;17.70;;;3.50;99.90;;;;;;4983861;28;20447;-87
2021/03/19 04:16:06;;;;;;;23.50;19.33;;;3.50;99.90;;;;;;4989334;28;20482;-88
2021/03/19 04:18:42;;;;;;;21.03;18.90;;;3.50;99.90;;;;;;4979732;28;20498;-88
2021/03/19 04:21:10;;;;;;;21.47;19.20;;;3.50;99.90;;;;;;4977998;28;20462;-89
2021/03/19 04:23:42;;;;;;;19.00;16.45;;;3.50;99.90;;;;;;4995982;28;20457;-87
2021/03/19 04:26:25;;;;;;;19.07;16.37;;;3.50;99.90;;;;;;4991683;28;20199;-88
2021/03/19 04:28:52;;;;;;;18.30;16.40;;;3.50;99.90;;;;;;4982429;28;21045;-88
2021/03/19 04:31:19;;;;;;;18.55;16.70;;;3.40;99.90;;;;;;4985311;28;20293;-89
2021/03/19 04:33:46;;;;;;;17.27;14.73;;;3.40;99.90;;;;;;4964347;28;20199;-90
2021/03/19 04:36:26;;;;;;;19.27;16.65;;;3.40;99.90;;;;;;4962275;29;20211;-88
2021/03/19 04:38:55;;;;;;;22.40;15.25;;;3.40;99.90;;;;;;4967643;28;20233;-87
2021/03/19 04:41:42;;;;;;;19.53;13.97;;;3.40;99.90;;;;;;4980385;28;20191;-88
2021/03/19 04:44:09;;;;;;;17.77;15.10;;;3.40;99.90;;;;;;4979610;28;20568;-88
2021/03/19 04:46:36;;;;;;;16.83;15.02;;;3.40;99.90;;;;;;4977164;28;20446;-90
2021/03/19 04:49:02;;;;;;;16.80;14.50;;;3.40;99.90;;;;;;4969424;29;20325;-89
2021/03/19 04:51:28;;;;;;;17.20;15.10;;;3.40;99.90;;;;;;4979716;28;20195;-87
2021/03/19 04:53:56;;;;;;;19.52;14.68;;;3.40;99.90;;;;;;4979213;28;20204;-87
2021/03/19 04:56:22;;;;;;;18.27;16.38;;;3.40;99.90;;;;;;4973327;28;20207;-88
2021/03/19 04:58:49;;;;;;;23.13;17.23;;;3.40;99.90;;;;;;4972619;28;20228;-89
2021/03/19 05:01:16;;;;;;;18.50;16.60;;;3.40;99.90;;;;;;4965723;29;20217;-89
2021/03/19 05:03:44;;;;;;;22.00;16.40;;;3.50;99.90;;;;;;4980033;28;20450;-89
2021/03/19 05:06:11;;;;;;;18.88;16.88;;;3.50;99.90;;;;;;4982932;28;20215;-87
2021/03/19 05:08:37;;;;;;;19.55;17.55;;;3.50;99.90;;;;;;4981451;28;20269;-88
2021/03/19 05:11:03;;;;;;;21.25;17.77;;;3.50;99.90;;;;;;4980124;28;20207;-88
2021/03/19 05:13:30;;;;;;;21.63;19.07;;;3.50;99.90;;;;;;4983112;28;20229;-90
2021/03/19 05:15:56;;;;;;;20.97;18.43;;;3.50;99.90;;;;;;4985985;28;20864;-88
2021/03/19 05:18:22;;;;;;;21.23;19.20;;;3.50;99.90;;;;;;4982662;28;20528;-91
2021/03/19 05:20:50;;;;;;;21.50;19.23;;;3.50;99.90;;;;;;4983096;28;20534;-89
2021/03/19 05:23:18;;;;;;;27.05;18.90;;;3.50;99.90;;;;;;4966215;28;20451;-89
2021/03/19 05:25:45;;;;;;;20.73;17.90;;;3.50;99.90;;;;;;4974125;28;20270;-90
2021/03/19 05:28:11;;;;;;;22.10;18.75;;;3.50;99.90;;;;;;4963831;29;20223;-87
2021/03/19 05:30:37;;;;;;;22.27;19.98;;;3.40;99.90;;;;;;4964584;28;20200;-89
2021/03/19 05:33:04;;;;;;;20.80;18.70;;;3.50;99.90;;;;;;4965386;28;20194;-86
2021/03/19 05:35:32;;;;;;;21.83;19.45;;;3.50;99.90;;;;;;4974122;28;20463;-88
2021/03/19 05:38:00;;;;;;;21.80;19.50;;;3.40;99.90;;;;;;4977794;28;20228;-87
2021/03/19 05:40:36;;;;;;;23.40;20.67;;;3.40;99.90;;;;;;4978169;28;20222;-88
2021/03/19 05:43:26;;;;;;;21.85;19.55;;;3.40;99.90;;;;;;4984298;28;20458;-91
2021/03/19 05:45:54;;;;;;;18.98;17.02;;;3.40;99.90;;;;;;4976550;28;20604;-92
2021/03/19 05:48:26;;;;;;;26.83;19.87;;;3.40;99.90;;;;;;4961517;29;20224;-92
2021/03/19 05:51:20;;;;;;;22.03;19.73;;;3.50;99.90;;;;;;4959002;29;20456;-91
2021/03/19 05:53:54;;;;;;;23.47;20.03;;;3.50;99.90;;;;;;4961386;29;20456;-91
2021/03/19 05:56:24;;;;;;;26.93;21.40;;;3.60;99.90;;;;;;4960208;28;20453;-89
2021/03/19 05:58:50;;;;;;;23.33;21.03;;;3.70;99.90;;;;;;4972765;28;20446;-86
2021/03/19 06:01:30;;;;;;;23.38;20.80;;;3.80;99.90;;;;;;4980701;28;20443;-91
2021/03/19 06:12:25;;;;;;;23.03;20.83;;;4.00;99.90;;;;;;5423443;23;21096;-90
2021/03/19 06:14:55;;;;;;;21.77;19.50;;;4.10;99.90;;;;;;4983007;28;20859;-89
2021/03/19 06:17:28;;;;;;;23.27;20.88;;;4.10;99.90;;;;;;4979553;28;20454;-90
2021/03/19 06:20:06;;;;;;;24.77;22.33;;;4.10;99.90;;;;;;4979908;28;20199;-89
2021/03/19 06:22:37;;;;;;;23.67;21.27;;;4.20;99.90;;;;;;4987148;28;20508;-90
2021/03/19 06:25:21;;;;;;;26.77;23.63;;;4.10;99.90;;;;;;4992078;28;20447;-92
2021/03/19 06:27:55;;;;;;;25.73;23.00;;;4.20;99.90;;;;;;5118352;23;20510;-92
2021/03/19 06:30:28;;;;;;;26.13;23.20;;;4.10;99.90;;;;;;4967602;28;20983;-91
2021/03/19 06:33:27;;;;;;;25.83;23.33;;;4.10;99.90;;;;;;4978660;28;20448;-92
2021/03/19 06:36:17;;;;;;;27.97;21.97;;;4.10;99.90;;;;;;4986955;28;20482;-89
2021/03/19 06:38:46;;;;;;;30.10;25.90;;;4.00;99.90;;;;;;4960430;28;20547;-90
2021/03/19 06:41:23;;;;;;;27.70;23.73;;;4.00;99.90;;;;;;4951502;29;20463;-92
2021/03/19 06:43:51;;;;;;;27.30;24.05;;;4.10;99.90;;;;;;4952023;29;20451;-91
2021/03/19 06:46:25;;;;;;;31.73;24.92;;;4.10;99.90;;;;;;4956586;29;20657;-90
2021/03/19 06:49:03;;;;;;;27.00;24.10;;;4.10;99.90;;;;;;4957417;28;20207;-88
2021/03/19 06:51:31;;;;;;;28.03;24.53;;;4.10;99.90;;;;;;4952388;29;20460;-90
2021/03/19 06:54:00;;;;;;;30.40;26.80;;;4.20;99.90;;;;;;4956796;29;20472;-90
2021/03/19 06:56:27;;;;;;;28.43;24.57;;;4.20;99.90;;;;;;4955232;29;20445;-89
2021/03/19 06:59:19;;;;;;;35.30;27.77;;;4.30;99.90;;;;;;4963685;28;20470;-89
2021/03/19 07:01:45;;;;;;;28.33;25.50;;;4.30;99.90;;;;;;4963527;29;20445;-90
2021/03/19 07:04:46;;;;;;;28.17;25.13;;;4.40;99.90;;;;;;4953393;29;20478;-90
2021/03/19 07:07:45;;;;;;;28.60;25.57;;;4.40;99.90;;;;;;4948914;28;20513;-91
2021/03/19 07:10:27;;;;;;;27.50;23.37;;;4.50;99.90;;;;;;4950765;28;20798;-90
2021/03/19 07:13:00;;;;;;;28.43;23.53;;;4.60;99.90;;;;;;4952981;28;20452;-89
2021/03/19 07:15:38;;;;;;;27.07;23.60;;;4.60;99.90;;;;;;4959785;29;20539;-89
2021/03/19 07:18:12;;;;;;;27.03;24.13;;;4.60;99.90;;;;;;4963640;28;20471;-91
2021/03/19 07:21:22;;;;;;;29.23;25.87;;;4.60;99.90;;;;;;4972696;28;20496;-90
2021/03/19 07:24:04;;;;;;;27.53;24.73;;;4.60;99.90;;;;;;4962412;28;20448;-88
2021/03/19 07:26:34;;;;;;;26.83;24.00;;;4.60;99.90;;;;;;4954157;28;20444;-89
2021/03/19 07:29:18;;;;;;;27.67;24.70;;;4.60;99.90;;;;;;4957696;28;20824;-91
2021/03/19 07:32:10;;;;;;;27.83;24.83;;;4.60;99.90;;;;;;4958623;28;20429;-88
2021/03/19 07:35:02;;;;;;;29.60;23.20;;;4.70;99.90;;;;;;4950192;29;20450;-89
2021/03/19 07:37:58;;;;;;;29.77;26.57;;;4.60;99.90;;;;;;4942090;29;20477;-90
2021/03/19 07:40:35;;;;;;;30.00;25.57;;;4.70;99.90;;;;;;4951186;29;20456;-90
2021/03/19 07:43:30;;;;;;;34.93;26.63;;;4.80;99.90;;;;;;4943971;29;20527;-90
2021/03/19 07:46:14;;;;;;;30.80;24.30;;;4.90;99.90;;;;;;4942525;29;20843;-90
2021/03/19 07:48:53;;;;;;;30.07;26.80;;;4.90;99.90;;;;;;4943274;29;20568;-89
2021/03/19 07:51:36;;;;;;;27.90;24.20;;;4.90;99.90;;;;;;4950328;29;20473;-90
2021/03/19 07:54:11;;;;;;;29.50;26.33;;;4.90;99.90;;;;;;4957729;28;20453;-89
2021/03/19 07:56:44;;;;;;;31.20;27.23;;;4.90;99.90;;;;;;4946854;29;20448;-89
2021/03/19 07:59:19;;;;;;;29.40;26.20;;;4.90;99.90;;;;;;4969899;28;20506;-87
2021/03/19 08:49:42;;;;;;;22.53;20.10;;;5.60;99.90;;;;;;5169610;23;20511;-89
2021/03/19 08:52:41;;;;;;;22.83;20.30;;;5.60;99.90;;;;;;4974421;28;20942;-88
2021/03/19 08:55:44;;;;;;;22.83;19.97;;;5.70;99.90;;;;;;4986518;28;20724;-87
2021/03/19 08:58:50;;;;;;;24.33;17.60;;;5.70;99.90;;;;;;4996849;28;20455;-89
2021/03/19 09:01:57;;;;;;;22.77;17.90;;;5.60;99.90;;;;;;4983021;28;20476;-87
2021/03/19 09:05:13;;;;;;;20.00;16.50;;;5.60;99.90;;;;;;4977814;28;20428;-87
2021/03/19 09:08:03;;;;;;;20.60;17.00;;;5.70;99.90;;;;;;4978557;28;20515;-88
2021/03/19 09:14:52;;;;;;;18.43;16.33;;;5.60;99.90;;;;;;4881384;29;20491;-88
2021/03/19 09:18:07;;;;;;;20.20;17.20;;;5.80;99.90;;;;;;4840834;29;20460;-89
2021/03/19 09:21:24;;;;;;;19.83;17.43;;;5.80;99.90;;;;;;4997588;28;20459;-88
2021/03/19 09:28:12;;;;;;;20.00;17.70;;;5.90;99.90;;;;;;4979567;28;20451;-88
2021/03/19 09:31:42;;;;;;;20.50;17.07;;;5.80;99.90;;;;;;4936299;28;20453;-89
2021/03/19 09:38:12;;;;;;;18.70;16.70;;;5.80;99.90;;;;;;4956596;28;20494;-89
2021/03/19 09:40:51;;;;;;;16.03;14.43;;;6.30;99.90;;;;;;4969452;28;20440;-85
2021/03/19 09:43:49;;;;;;;14.37;12.83;;;6.70;99.90;;;;;;4966841;29;20452;-86
2021/03/19 09:46:25;;;;;;;14.03;12.30;;;6.80;99.60;;;;;;4975727;29;20516;-86
2021/03/19 09:49:00;;;;;;;13.70;12.20;;;6.90;98.90;;;;;;4972393;28;20479;-85
2021/03/19 09:51:43;;;;;;;15.77;13.40;;;7.10;98.70;;;;;;4961746;29;20456;-86
2021/03/19 09:54:36;;;;;;;14.60;12.90;;;7.20;98.10;;;;;;4969796;29;20472;-86
2021/03/19 09:57:13;;;;;;;14.50;12.87;;;7.30;98.10;;;;;;4972158;29;20491;-85
2021/03/19 09:59:47;;;;;;;13.33;11.93;;;7.10;96.40;;;;;;4986651;28;20944;-85
2021/03/19 10:02:27;;;;;;;14.30;12.90;;;7.10;96.80;;;;;;4993468;28;20432;-85
2021/03/19 10:04:55;;;;;;;12.03;10.80;;;7.60;96.80;;;;;;4994901;28;20506;-85
2021/03/19 10:28:03;;;;;;;12.60;11.50;;;10.40;86.10;;;;;;4924591;29;20581;-85
2021/03/19 10:30:33;;;;;;;12.60;11.40;;;10.00;87.10;;;;;;4939363;29;20427;-84
2021/03/19 10:33:07;;;;;;;12.20;11.10;;;9.40;89.90;;;;;;4934431;29;20442;-84
2021/03/19 10:35:36;;;;;;;10.77;9.73;;;8.70;91.60;;;;;;4927678;29;20442;-84
2021/03/19 10:38:12;;;;;;;12.77;11.50;;;8.30;93.20;;;;;;4928343;29;20461;-84
2021/03/19 10:40:40;;;;;;;13.17;11.87;;;7.90;94.40;;;;;;4940741;29;20926;-84
2021/03/19 10:43:16;;;;;;;13.37;11.97;;;7.50;95.30;;;;;;4934326;29;20459;-85
2021/03/19 10:45:50;;;;;;;11.67;10.57;;;7.10;95.90;;;;;;4911993;29;20458;-86
2021/03/19 10:48:36;;;;;;;12.27;10.70;;;6.90;96.80;;;;;;4919263;29;20495;-85
2021/03/19 10:51:10;;;;;;;10.57;9.47;;;6.80;97.10;;;;;;4923601;29;20442;-85
2021/03/19 10:53:46;;;;;;;11.53;10.30;;;6.70;97.40;;;;;;4923946;29;20461;-84
2021/03/19 10:56:13;;;;;;;11.30;9.50;;;6.70;97.50;;;;;;4917030;29;20455;-85
2021/03/19 10:58:45;;;;;;;8.83;7.23;;;6.80;97.80;;;;;;4922402;29;20543;-84
2021/03/19 11:01:32;;;;;;;7.50;6.80;;;6.60;97.20;;;;;;4915278;29;20510;-84
2021/03/19 11:03:59;;;;;;;6.40;5.80;;;6.50;97.30;;;;;;4907327;29;20462;-84
2021/03/19 11:06:39;;;;;;;5.80;5.23;;;6.40;97.40;;;;;;4922531;29;20502;-84
2021/03/19 11:09:12;;;;;;;6.90;6.27;;;6.40;97.00;;;;;;4923444;29;20549;-85
2021/03/19 11:11:39;;;;;;;6.40;5.73;;;6.40;96.90;;;;;;4924390;29;20540;-85
2021/03/19 11:14:09;;;;;;;7.23;6.53;;;6.60;97.00;;;;;;4925547;29;20454;-85
2021/03/19 11:16:39;;;;;;;6.00;5.40;;;6.80;96.90;;;;;;4923506;29;20462;-85
2021/03/19 11:19:09;;;;;;;6.80;5.10;;;7.00;96.40;;;;;;4927783;29;20474;-85
2021/03/19 11:21:40;;;;;;;6.50;5.90;;;6.90;96.10;;;;;;4923852;29;20580;-86
2021/03/19 11:24:23;;;;;;;7.00;6.40;;;6.60;96.80;;;;;;4924516;29;20489;-87
2021/03/19 11:26:57;;;;;;;8.53;6.60;;;6.40;97.30;;;;;;4922353;29;20470;-85
2021/03/19 11:29:31;;;;;;;6.90;5.97;;;6.20;97.50;;;;;;4921697;29;20602;-85
2021/03/19 11:32:10;;;;;;;7.63;6.50;;;6.10;97.70;;;;;;4911251;29;20943;-85
2021/03/19 11:37:45;;;;;;;7.50;6.80;;;6.40;97.10;;;;;;4884697;29;20511;-87
2021/03/19 11:40:17;;;;;;;6.87;6.17;;;6.80;96.60;;;;;;4903852;29;20432;-85
2021/03/19 11:42:52;;;;;;;8.40;7.60;;;6.80;96.00;;;;;;4904905;29;20455;-86
2021/03/19 11:45:50;;;;;;;7.50;6.70;;;6.90;95.00;;;;;;4904083;29;20811;-86
2021/03/19 11:52:01;;;;;;;8.43;6.67;;;7.40;94.60;;;;;;4890295;29;20487;-85
2021/03/19 11:54:37;;;;;;;8.83;8.03;;;7.30;93.70;;;;;;4911787;29;20455;-86
2021/03/19 11:57:19;;;;;;;7.60;6.90;;;6.80;94.10;;;;;;4903767;29;20527;-85
2021/03/19 12:07:26;;;;;;;9.97;8.93;;;6.40;95.20;;;;;;4876834;29;21300;-88
2021/03/19 12:26:09;;;;;;;11.40;9.50;;;6.60;93.90;;;;;;4838618;29;20484;-85
2021/03/19 12:32:50;;;;;;;10.10;8.77;;;6.40;93.80;;;;;;4756176;30;20504;-86
2021/03/19 12:36:01;;;;;;;13.47;10.93;;;6.60;93.30;;;;;;4803951;29;20464;-85
2021/03/19 12:39:21;;;;;;;11.50;10.30;;;6.80;93.30;;;;;;4776174;30;20477;-85
2021/03/19 12:42:20;;;;;;;13.80;10.33;;;6.80;93.60;;;;;;4780427;30;20517;-85
2021/03/19 12:48:49;;;;;;;17.40;13.33;;;6.60;93.90;;;;;;4848514;29;20650;-85
2021/03/19 12:55:14;;;;;;;16.93;15.07;;;6.20;94.10;;;;;;4815065;29;20451;-85
2021/03/19 13:30:21;;;;;;;18.10;15.30;;;5.60;93.90;;;;;;4848913;29;20497;-86
2021/03/19 13:36:42;;;;;;;17.13;14.73;;;5.80;94.20;;;;;;4876487;29;21005;-85
2021/03/19 13:46:17;;;;;;;14.93;11.80;;;6.30;92.90;;;;;;4813851;29;20439;-84
2021/03/19 13:56:20;;;;;;;;;;;;;;;;;;;;;
2021/03/19 14:06:47;;;;;;;16.20;13.70;;;7.00;91.40;;;;;;4702667;30;20488;-86
2021/03/19 14:27:00;;;;;;;11.97;10.67;;;7.30;87.80;;;;;;1405250;26;20483;-85
2021/03/19 14:29:30;;;;;;;12.80;9.97;;;7.20;89.20;;;;;;4951937;29;20546;-85
2021/03/19 14:31:57;;;;;;;11.07;9.30;;;7.00;91.80;;;;;;4956866;29;20480;-85
2021/03/19 14:38:04;;;;;;;8.93;7.80;;;6.80;93.70;;;;;;4934754;29;20456;-85
2021/03/19 14:41:11;;;;;;;;;;;;;;;;;;;;;
2021/03/19 14:43:40;;;;;;;11.20;9.10;;;6.60;94.30;;;;;;4960806;29;20472;-85
2021/03/19 14:52:06;;;;;;;9.97;8.77;;;6.30;95.40;;;;;;4960555;29;20453;-85
2021/03/19 14:54:53;;;;;;;11.00;9.90;;;6.30;95.80;;;;;;4968153;29;20453;-85
2021/03/19 14:57:42;;;;;;;10.93;9.00;;;6.10;95.80;;;;;;4977595;29;20451;-84
2021/03/19 15:00:23;;;;;;;10.53;8.50;;;5.80;96.10;;;;;;4948386;29;20457;-85
2021/03/19 15:02:59;;;;;;;12.00;9.43;;;5.70;96.20;;;;;;4959251;29;20461;-87
2021/03/19 15:05:30;;;;;;;9.00;7.97;;;5.70;95.90;;;;;;4961102;28;20405;-85
2021/03/19 15:08:02;;;;;;;9.97;8.77;;;5.70;95.50;;;;;;4945137;29;20485;-85
2021/03/19 15:10:31;;;;;;;10.40;8.77;;;5.70;95.60;;;;;;4963150;29;20457;-85
2021/03/19 15:13:02;;;;;;;9.43;8.43;;;5.50;96.00;;;;;;4960835;29;20456;-85
2021/03/19 15:15:34;;;;;;;10.50;8.70;;;5.40;96.50;;;;;;4970566;29;20452;-86
2021/03/19 15:18:06;;;;;;;10.30;8.60;;;5.40;97.30;;;;;;4966449;28;20492;-86
2021/03/19 15:20:49;;;;;;;10.80;9.40;;;5.40;97.70;;;;;;4960798;28;20450;-85
2021/03/19 15:59:41;;;;;;;;;;;;;;;;;;;;;
2021/03/19 16:36:19;;;;;;;8.63;7.73;;;6.40;94.70;;;;;;4870954;29;20444;-86
2021/03/19 17:05:10;;;;;;;7.03;5.70;;;5.70;92.80;;;;;;4939830;29;20966;-85
2021/03/19 17:07:51;;;;;;;9.00;6.90;;;5.70;92.60;;;;;;4937380;29;20467;-85
2021/03/19 17:10:50;;;;;;;7.30;6.50;;;5.60;93.20;;;;;;4938498;29;20453;-85
2021/03/19 17:13:39;;;;;;;8.37;6.30;;;5.50;93.40;;;;;;4941561;29;20460;-84
2021/03/19 17:16:18;;;;;;;9.23;7.67;;;5.30;92.70;;;;;;4956433;28;20452;-85
2021/03/19 17:19:18;;;;;;;7.30;6.57;;;5.30;92.80;;;;;;4931975;29;20573;-87
2021/03/19 17:22:14;;;;;;;9.50;8.50;;;5.30;93.00;;;;;;4936205;29;20487;-85
2021/03/19 17:24:59;;;;;;;;;;;;;;;;;;;;;
2021/03/19 17:27:38;;;;;;;8.60;7.40;;;5.20;92.90;;;;;;4919289;29;20455;-87
2021/03/19 17:30:32;;;;;;;;;;;;;;;;;;;;;
2021/03/19 17:33:29;;;;;;;7.53;6.60;;;5.20;92.80;;;;;;4927508;29;20446;-86
2021/03/19 17:36:25;;;;;;;7.23;6.40;;;5.30;92.20;;;;;;4929809;29;20462;-86
2021/03/19 17:38:54;;;;;;;7.97;6.80;;;5.20;91.90;;;;;;4922362;29;20475;-84
2021/03/19 17:42:09;;;;;;;7.50;6.77;;;5.20;91.80;;;;;;4914284;29;20467;-86
2021/03/19 17:44:49;;;;;;;11.40;9.20;;;5.10;91.50;;;;;;4857822;29;20461;-85
2021/03/19 17:47:38;;;;;;;11.40;8.30;;;5.10;91.70;;;;;;4905827;29;20446;-86
2021/03/19 17:53:29;;;;;;;7.77;6.97;;;5.00;90.60;;;;;;4927543;29;20460;-85
2021/03/19 17:59:27;;;;;;;6.77;6.00;;;4.80;91.00;;;;;;4909609;23;20491;-85
2021/03/19 18:01:54;;;;;;;7.53;6.57;;;4.70;91.20;;;;;;4961780;29;20465;-85
2021/03/19 18:04:20;;;;;;;9.40;8.60;;;4.60;91.60;;;;;;4960052;29;20480;-84
2021/03/19 18:06:48;;;;;;;9.90;8.90;;;4.50;91.70;;;;;;4959934;29;20477;-84
2021/03/19 18:09:15;;;;;;;8.10;7.30;;;4.40;91.80;;;;;;4955073;29;21135;-85
2021/03/19 18:11:43;;;;;;;10.15;7.65;;;4.40;92.20;;;;;;4956552;29;20488;-83
2021/03/19 18:21:39;;;;;;;8.67;7.50;;;4.10;92.40;;;;;;4940376;29;21012;-85
2021/03/19 19:15:25;;;;;;;11.23;8.90;;;3.20;93.10;;;;;;4765251;29;20753;-87
2021/03/19 19:18:08;;;;;;;10.07;7.70;;;3.10;93.70;;;;;;4794271;29;20486;-86
2021/03/19 19:20:40;;;;;;;9.98;7.93;;;3.00;93.70;;;;;;4932684;29;20282;-87
2021/03/19 19:26:24;;;;;;;12.32;9.70;;;3.20;94.00;;;;;;4905182;29;20303;-86
2021/03/19 19:29:13;;;;;;;9.88;8.88;;;3.10;93.80;;;;;;4952452;29;20232;-86
2021/03/19 19:32:02;;;;;;;12.95;8.90;;;3.20;94.00;;;;;;4950681;29;20207;-86
2021/03/19 19:38:00;;;;;;;12.07;9.95;;;3.10;94.10;;;;;;4940909;29;20215;-87
2021/03/19 19:47:29;;;;;;;13.67;11.20;;;3.00;93.90;;;;;;4954621;29;20640;-85
2021/03/19 19:50:10;;;;;;;13.73;11.65;;;3.00;94.00;;;;;;4953077;28;21041;-87
2021/03/19 19:52:50;;;;;;;16.55;11.95;;;3.10;94.30;;;;;;4953152;29;20212;-87
2021/03/19 19:58:51;;;;;;;13.07;10.75;;;2.90;94.80;;;;;;4946866;29;20191;-88
2021/03/19 20:01:19;;;;;;;13.80;11.32;;;2.70;95.10;;;;;;4956698;29;20343;-86
2021/03/19 20:03:49;;;;;;;13.32;10.65;;;2.60;95.50;;;;;;4957292;29;20224;-87
2021/03/19 20:06:15;;;;;;;14.77;10.60;;;2.50;95.70;;;;;;4949510;29;20207;-87
2021/03/19 20:08:43;;;;;;;11.77;10.57;;;2.50;95.90;;;;;;4946628;29;20227;-86
2021/03/19 20:11:10;;;;;;;15.50;11.15;;;2.40;96.10;;;;;;4947241;29;20193;-86
2021/03/19 20:13:38;;;;;;;13.27;11.15;;;2.40;96.30;;;;;;4964342;29;20200;-86